Time,TemperatureF,DewpointF,PressureIn,WindDirection,WindDirectionDegrees,WindSpeedMPH,WindSpeedGustMPH,Humidity,HourlyPrecipIn,Conditions,Clouds,dailyrainin,SoftwareType,DateUTC
2013-01-17 00:00:00,41.3,39.7,30.01,NW,309,0.0,3.0,94,0.00,,---,0.27,VWS V14.01,2013-01-17 05:00:00,
2013-01-17 00:01:00,41.3,39.7,30.00,NW,309,0.0,0.0,94,0.00,,---,0.00,VWS V14.01,2013-01-17 05:01:00,
2013-01-17 00:02:00,41.2,39.6,30.00,NW,309,0.0,0.0,94,0.00,,---,0.00,VWS V14.01,2013-01-17 05:02:00,
2013-01-17 00:07:00,41.2,39.6,30.01,NW,309,0.0,0.0,94,0.00,,---,0.00,VWS V14.01,2013-01-17 05:07:00,
2013-01-17 00:11:00,41.1,39.5,30.02,NW,309,0.0,0.0,94,0.00,,---,0.00,VWS V14.01,2013-01-17 05:11:00,
2013-01-17 00:17:00,41.1,39.5,30.00,NW,309,0.0,1.0,94,0.00,,---,0.00,VWS V14.01,2013-01-17 05:17:00,
2013-01-17 00:21:00,41.1,39.5,30.00,NW,309,0.0,1.0,94,0.00,,---,0.00,VWS V14.01,2013-01-17 05:21:00,
2013-01-17 00:26:00,41.1,39.5,30.01,NW,309,0.0,2.0,94,0.00,,---,0.00,VWS V14.01,2013-01-17 05:26:00,
2013-01-17 00:31:00,41.1,39.5,30.00,NW,309,1.0,3.0,94,0.00,,---,0.00,VWS V14.01,2013-01-17 05:31:00,
2013-01-17 00:36:00,40.9,39.3,30.00,NW,309,0.0,3.0,94,0.00,,---,0.00,VWS V14.01,2013-01-17 05:36:00,
2013-01-17 00:41:00,40.8,39.2,30.02,NW,309,0.0,3.0,94,0.00,,---,0.00,VWS V14.01,2013-01-17 05:41:00,
2013-01-17 00:46:00,40.7,39.1,30.02,NW,309,0.0,3.0,94,0.00,,---,0.00,VWS V14.01,2013-01-17 05:46:00,
2013-01-17 00:51:00,40.7,39.1,30.02,NW,309,0.0,3.0,94,0.00,,---,0.00,VWS V14.01,2013-01-17 05:51:00,
2013-01-17 00:56:00,40.7,39.1,30.02,NW,309,0.0,3.0,94,0.00,,---,0.00,VWS V14.01,2013-01-17 05:56:00,
2013-01-17 01:01:00,40.6,39.0,30.02,NW,309,1.0,1.0,94,0.00,,---,0.00,VWS V14.01,2013-01-17 06:01:00,
2013-01-17 01:06:00,40.6,39.0,30.02,NW,309,0.0,1.0,94,0.00,,---,0.00,VWS V14.01,2013-01-17 06:06:00,
2013-01-17 01:11:00,40.7,39.1,30.01,NW,309,0.0,1.0,94,0.00,,---,0.00,VWS V14.01,2013-01-17 06:11:00,
2013-01-17 01:16:00,40.7,39.1,30.02,NW,309,0.0,1.0,94,0.00,,---,0.00,VWS V14.01,2013-01-17 06:16:00,
2013-01-17 01:21:00,40.7,39.1,30.02,NW,309,1.0,3.0,94,0.00,,---,0.00,VWS V14.01,2013-01-17 06:21:00,
2013-01-17 01:26:00,40.6,39.0,30.02,NW,309,2.0,3.0,94,0.00,,---,0.00,VWS V14.01,2013-01-17 06:26:00,
2013-01-17 01:31:00,40.5,38.9,30.02,NW,309,1.0,2.0,94,0.00,,---,0.00,VWS V14.01,2013-01-17 06:31:00,
2013-01-17 01:36:00,40.5,38.9,30.03,NW,309,0.0,2.0,94,0.00,,---,0.00,VWS V14.01,2013-01-17 06:36:00,
2013-01-17 01:41:00,40.5,38.9,30.03,NW,309,1.0,2.0,94,0.00,,---,0.00,VWS V14.01,2013-01-17 06:41:00,
2013-01-17 01:46:00,40.5,38.9,30.03,NW,309,0.0,2.0,94,0.00,,---,0.00,VWS V14.01,2013-01-17 06:46:00,
2013-01-17 01:51:00,40.5,38.9,30.03,NW,309,0.0,2.0,94,0.00,,---,0.00,VWS V14.01,2013-01-17 06:51:00,
2013-01-17 01:56:00,40.5,38.9,30.03,NW,309,0.0,2.0,94,0.00,,---,0.00,VWS V14.01,2013-01-17 06:56:00,
2013-01-17 02:01:00,40.6,39.0,30.03,NW,309,0.0,0.0,94,0.00,,---,0.00,VWS V14.01,2013-01-17 07:01:00,
2013-01-17 02:06:00,40.6,39.0,30.04,NW,309,0.0,1.0,94,0.00,,---,0.00,VWS V14.01,2013-01-17 07:06:00,
2013-01-17 02:11:00,40.5,38.9,30.03,NW,309,1.0,1.0,94,0.00,,---,0.00,VWS V14.01,2013-01-17 07:11:00,
2013-01-17 02:16:00,40.5,38.9,30.03,NW,309,0.0,2.0,94,0.00,,---,0.00,VWS V14.01,2013-01-17 07:16:00,
2013-01-17 02:21:00,40.4,38.8,30.04,NW,309,0.0,2.0,94,0.00,,---,0.00,VWS V14.01,2013-01-17 07:21:00,
2013-01-17 02:26:00,40.5,38.9,30.03,NW,309,0.0,2.0,94,0.00,,---,0.00,VWS V14.01,2013-01-17 07:26:00,
2013-01-17 02:31:00,40.5,38.9,30.02,NW,309,0.0,1.0,94,0.00,,---,0.00,VWS V14.01,2013-01-17 07:31:00,
2013-01-17 02:36:00,40.4,38.8,30.03,NW,309,0.0,1.0,94,0.00,,---,0.00,VWS V14.01,2013-01-17 07:36:00,
2013-01-17 02:41:00,40.4,38.8,30.03,NW,309,0.0,1.0,94,0.00,,---,0.00,VWS V14.01,2013-01-17 07:41:00,
2013-01-17 02:46:00,40.2,38.6,30.02,NW,309,0.0,1.0,94,0.00,,---,0.00,VWS V14.01,2013-01-17 07:46:00,
2013-01-17 02:51:00,40.1,38.5,30.02,NW,309,2.0,2.0,94,0.00,,---,0.00,VWS V14.01,2013-01-17 07:51:00,
2013-01-17 02:56:00,39.9,38.3,30.03,NW,309,0.0,2.0,94,0.00,,---,0.00,VWS V14.01,2013-01-17 07:56:00,
2013-01-17 03:01:00,39.8,38.2,30.03,NW,309,0.0,1.0,94,0.00,,---,0.00,VWS V14.01,2013-01-17 08:01:00,
2013-01-17 03:06:00,39.7,38.1,30.04,NW,309,0.0,1.0,94,0.00,,---,0.00,VWS V14.01,2013-01-17 08:06:00,
2013-01-17 03:11:00,39.6,38.0,30.04,NW,309,0.0,1.0,94,0.00,,---,0.00,VWS V14.01,2013-01-17 08:11:00,
2013-01-17 03:16:00,39.6,38.0,30.03,NW,309,0.0,1.0,94,0.00,,---,0.00,VWS V14.01,2013-01-17 08:16:00,
2013-01-17 03:21:00,39.5,37.9,30.03,NW,309,0.0,1.0,94,0.00,,---,0.00,VWS V14.01,2013-01-17 08:21:00,
2013-01-17 03:26:00,39.5,37.9,30.03,NW,309,0.0,1.0,94,0.00,,---,0.00,VWS V14.01,2013-01-17 08:26:00,
2013-01-17 03:31:00,39.4,37.8,30.04,SSW,207,1.0,2.0,94,0.00,,---,0.00,VWS V14.01,2013-01-17 08:31:00,
2013-01-17 03:36:00,39.4,37.8,30.04,SSW,207,0.0,2.0,94,0.00,,---,0.00,VWS V14.01,2013-01-17 08:36:00,
2013-01-17 03:41:00,39.4,37.8,30.04,SSW,207,0.0,2.0,94,0.00,,---,0.00,VWS V14.01,2013-01-17 08:41:00,
2013-01-17 03:46:00,39.4,37.8,30.02,SSW,207,1.0,2.0,94,0.00,,---,0.00,VWS V14.01,2013-01-17 08:46:00,
2013-01-17 03:51:00,39.4,37.8,30.04,SSW,207,0.0,2.0,94,0.00,,---,0.00,VWS V14.01,2013-01-17 08:51:00,
2013-01-17 03:56:00,39.3,37.7,30.04,SSW,207,0.0,2.0,94,0.00,,---,0.00,VWS V14.01,2013-01-17 08:56:00,
2013-01-17 04:01:00,39.2,37.6,30.05,SSW,207,0.0,0.0,94,0.00,,---,0.00,VWS V14.01,2013-01-17 09:01:00,
2013-01-17 04:06:00,39.3,37.7,30.05,SSW,207,0.0,1.0,94,0.00,,---,0.00,VWS V14.01,2013-01-17 09:06:00,
2013-01-17 04:11:00,39.3,37.7,30.05,SSW,207,0.0,1.0,94,0.00,,---,0.00,VWS V14.01,2013-01-17 09:11:00,
2013-01-17 04:16:00,39.3,37.7,30.05,SSW,207,3.0,3.0,94,0.00,,---,0.00,VWS V14.01,2013-01-17 09:16:00,
2013-01-17 04:21:00,39.4,37.8,30.05,SSW,207,3.0,3.0,94,0.00,,---,0.00,VWS V14.01,2013-01-17 09:21:00,
2013-01-17 04:26:00,39.6,38.0,30.05,SSW,195,2.0,5.0,94,0.00,,---,0.00,VWS V14.01,2013-01-17 09:26:00,
2013-01-17 04:31:00,39.7,38.1,30.05,SSW,195,3.0,4.0,94,0.00,,---,0.00,VWS V14.01,2013-01-17 09:31:00,
2013-01-17 04:36:00,39.8,38.2,30.05,SSW,195,2.0,4.0,94,0.00,,---,0.00,VWS V14.01,2013-01-17 09:36:00,
2013-01-17 04:41:00,40.0,38.4,30.04,SSW,195,0.0,4.0,94,0.00,,---,0.00,VWS V14.01,2013-01-17 09:41:00,
2013-01-17 04:46:00,40.3,38.7,30.04,SSW,195,1.0,4.0,94,0.00,,---,0.00,VWS V14.01,2013-01-17 09:46:00,
2013-01-17 04:51:00,40.7,39.1,30.05,SSW,195,0.0,4.0,94,0.00,,---,0.00,VWS V14.01,2013-01-17 09:51:00,
2013-01-17 04:56:00,40.8,39.2,30.05,SSW,195,0.0,4.0,94,0.00,,---,0.00,VWS V14.01,2013-01-17 09:56:00,
2013-01-17 05:01:00,40.7,39.1,30.04,SSW,195,1.0,1.0,94,0.00,,---,0.00,VWS V14.01,2013-01-17 10:01:00,
2013-01-17 05:06:00,40.5,38.9,30.05,SSW,195,1.0,3.0,94,0.00,,---,0.00,VWS V14.01,2013-01-17 10:06:00,
2013-01-17 05:11:00,40.4,38.8,30.04,SSW,195,0.0,3.0,94,0.00,,---,0.00,VWS V14.01,2013-01-17 10:11:00,
2013-01-17 05:16:00,40.4,38.8,30.05,SSW,195,1.0,3.0,94,0.00,,---,0.00,VWS V14.01,2013-01-17 10:16:00,
2013-01-17 05:21:00,40.4,38.8,30.05,SSW,195,0.0,3.0,94,0.00,,---,0.00,VWS V14.01,2013-01-17 10:21:00,
2013-01-17 05:26:00,40.5,38.9,30.05,SSW,195,0.0,3.0,94,0.00,,---,0.00,VWS V14.01,2013-01-17 10:26:00,
2013-01-17 05:31:00,40.5,38.9,30.04,SSW,195,0.0,0.0,94,0.00,,---,0.00,VWS V14.01,2013-01-17 10:31:00,
2013-01-17 05:36:00,40.6,39.0,30.04,SSW,195,0.0,0.0,94,0.00,,---,0.00,VWS V14.01,2013-01-17 10:36:00,
2013-01-17 05:41:00,40.6,39.0,30.03,SSW,195,2.0,2.0,94,0.00,,---,0.00,VWS V14.01,2013-01-17 10:41:00,
2013-01-17 05:46:00,40.5,38.9,30.03,SSW,195,2.0,3.0,94,0.00,,---,0.00,VWS V14.01,2013-01-17 10:46:00,
2013-01-17 05:51:00,40.5,38.9,30.05,SSW,195,0.0,4.0,94,0.00,,---,0.00,VWS V14.01,2013-01-17 10:51:00,
2013-01-17 05:56:00,40.5,38.9,30.05,SSW,195,2.0,4.0,94,0.00,,---,0.00,VWS V14.01,2013-01-17 10:56:00,
2013-01-17 06:01:00,40.6,39.0,30.06,SSW,195,1.0,3.0,94,0.00,,---,0.00,VWS V14.01,2013-01-17 11:01:00,
2013-01-17 06:06:00,40.7,39.1,30.06,SSW,195,0.0,3.0,94,0.00,,---,0.00,VWS V14.01,2013-01-17 11:06:00,
2013-01-17 06:11:00,40.8,39.2,30.05,SSW,195,0.0,3.0,94,0.00,,---,0.00,VWS V14.01,2013-01-17 11:11:00,
2013-01-17 06:16:00,40.9,39.3,30.05,SSW,195,0.0,3.0,94,0.00,,---,0.00,VWS V14.01,2013-01-17 11:16:00,
2013-01-17 06:21:00,41.0,39.4,30.05,SSW,195,0.0,3.0,94,0.00,,---,0.00,VWS V14.01,2013-01-17 11:21:00,
2013-01-17 06:26:00,41.1,39.5,30.04,SSW,195,0.0,3.0,94,0.00,,---,0.00,VWS V14.01,2013-01-17 11:26:00,
2013-01-17 06:31:00,41.0,39.4,30.05,SSW,195,3.0,3.0,94,0.00,,---,0.00,VWS V14.01,2013-01-17 11:31:00,
2013-01-17 06:36:00,40.9,39.3,30.06,SSW,195,0.0,4.0,94,0.00,,---,0.00,VWS V14.01,2013-01-17 11:36:00,
2013-01-17 06:41:00,41.0,39.4,30.06,SSW,195,0.0,4.0,94,0.00,,---,0.00,VWS V14.01,2013-01-17 11:41:00,
2013-01-17 06:46:00,40.8,39.2,30.05,SSW,195,0.0,4.0,94,0.00,,---,0.00,VWS V14.01,2013-01-17 11:46:00,
2013-01-17 06:51:00,40.7,39.1,30.05,SSW,195,0.0,4.0,94,0.00,,---,0.00,VWS V14.01,2013-01-17 11:51:00,
2013-01-17 06:56:00,40.7,39.1,30.06,SSW,195,0.0,4.0,94,0.00,,---,0.00,VWS V14.01,2013-01-17 11:56:00,
2013-01-17 07:01:00,40.6,39.0,30.06,SSW,195,1.0,2.0,94,0.00,,---,0.00,VWS V14.01,2013-01-17 12:01:00,
2013-01-17 07:06:00,40.5,38.9,30.07,SSW,195,1.0,2.0,94,0.00,,---,0.00,VWS V14.01,2013-01-17 12:06:00,
2013-01-17 07:11:00,40.4,38.8,30.08,SSW,195,1.0,2.0,94,0.00,,---,0.00,VWS V14.01,2013-01-17 12:11:00,
2013-01-17 07:16:00,40.4,38.8,30.07,SSW,195,0.0,2.0,94,0.00,,---,0.00,VWS V14.01,2013-01-17 12:16:00,
2013-01-17 07:21:00,40.3,38.7,30.06,SSW,195,3.0,3.0,94,0.00,,---,0.00,VWS V14.01,2013-01-17 12:21:00,
2013-01-17 07:26:00,40.3,38.7,30.07,SSW,195,0.0,3.0,94,0.00,,---,0.00,VWS V14.01,2013-01-17 12:26:00,
2013-01-17 07:31:00,40.4,38.8,30.09,SSW,195,0.0,1.0,94,0.00,,---,0.00,VWS V14.01,2013-01-17 12:31:00,
2013-01-17 07:36:00,40.4,38.8,30.08,SSW,195,2.0,3.0,94,0.00,,---,0.00,VWS V14.01,2013-01-17 12:36:00,
2013-01-17 07:41:00,40.4,38.8,30.08,SSW,195,1.0,3.0,94,0.00,,---,0.00,VWS V14.01,2013-01-17 12:41:00,
2013-01-17 07:46:00,40.5,38.9,30.08,SSW,195,1.0,3.0,94,0.00,,---,0.00,VWS V14.01,2013-01-17 12:46:00,
2013-01-17 07:51:00,40.6,39.0,30.09,SSW,195,0.0,3.0,94,0.00,,---,0.00,VWS V14.01,2013-01-17 12:51:00,
2013-01-17 07:56:00,40.7,39.1,30.10,SSW,195,0.0,3.0,94,0.00,,---,0.00,VWS V14.01,2013-01-17 12:56:00,
2013-01-17 08:01:00,40.8,39.2,30.11,SSW,195,0.0,0.0,94,0.00,,---,0.00,VWS V14.01,2013-01-17 13:01:00,
2013-01-17 08:06:00,40.9,39.3,30.10,SSW,195,0.0,0.0,94,0.00,,---,0.00,VWS V14.01,2013-01-17 13:06:00,
2013-01-17 08:11:00,40.9,39.3,30.09,SSW,195,1.0,2.0,94,0.00,,---,0.00,VWS V14.01,2013-01-17 13:11:00,
2013-01-17 08:16:00,40.9,39.3,30.09,SSW,195,0.0,2.0,94,0.00,,---,0.00,VWS V14.01,2013-01-17 13:16:00,
2013-01-17 08:21:00,40.8,39.2,30.09,SSW,195,1.0,2.0,94,0.00,,---,0.00,VWS V14.01,2013-01-17 13:21:00,
2013-01-17 08:26:00,40.7,39.1,30.10,SSW,195,2.0,2.0,94,0.00,,---,0.00,VWS V14.01,2013-01-17 13:26:00,
2013-01-17 08:31:00,40.4,38.5,30.11,NW,313,3.0,4.0,93,0.00,,---,0.00,VWS V14.01,2013-01-17 13:31:00,
2013-01-17 08:36:00,40.9,38.8,30.11,NNW,330,2.0,4.0,92,0.00,,---,0.00,VWS V14.01,2013-01-17 13:36:00,
2013-01-17 08:41:00,41.3,38.9,30.12,NNW,331,2.0,4.0,91,0.00,,---,0.00,VWS V14.01,2013-01-17 13:41:00,
2013-01-17 08:46:00,41.5,37.9,30.13,NNW,331,3.0,4.0,87,0.00,,---,0.00,VWS V14.01,2013-01-17 13:46:00,
2013-01-17 08:50:00,41.6,36.8,30.13,NW,309,3.0,6.0,83,0.00,,---,0.00,VWS V14.01,2013-01-17 13:50:00,
2013-01-17 08:55:00,41.8,36.1,30.13,North,350,1.0,6.0,80,0.00,,---,0.00,VWS V14.01,2013-01-17 13:55:00,
2013-01-17 09:00:00,41.8,35.8,30.13,NW,317,3.0,3.0,79,0.00,,---,0.00,VWS V14.01,2013-01-17 14:00:00,
2013-01-17 09:05:00,41.9,35.2,30.13,NW,317,0.0,3.0,77,0.00,,---,0.00,VWS V14.01,2013-01-17 14:05:00,
2013-01-17 09:10:00,42.0,34.7,30.12,NW,317,1.0,3.0,75,0.00,,---,0.00,VWS V14.01,2013-01-17 14:10:00,
2013-01-17 09:15:00,42.1,35.8,30.11,ENE,78,1.0,3.0,78,0.00,,---,0.00,VWS V14.01,2013-01-17 14:15:00,
2013-01-17 09:20:00,42.0,36.3,30.12,ENE,78,0.0,3.0,80,0.00,,---,0.00,VWS V14.01,2013-01-17 14:20:00,
2013-01-17 09:25:00,41.9,36.2,30.13,ENE,78,0.0,3.0,80,0.00,,---,0.00,VWS V14.01,2013-01-17 14:25:00,
2013-01-17 09:30:00,42.0,34.7,30.14,ENE,78,0.0,0.0,75,0.00,,---,0.00,VWS V14.01,2013-01-17 14:30:00,
2013-01-17 09:35:00,42.2,34.2,30.14,ENE,78,2.0,2.0,73,0.00,,---,0.00,VWS V14.01,2013-01-17 14:35:00,
2013-01-17 09:40:00,42.5,34.1,30.13,ENE,78,1.0,3.0,72,0.00,,---,0.00,VWS V14.01,2013-01-17 14:40:00,
2013-01-17 09:45:00,42.6,34.2,30.14,ENE,78,0.0,3.0,72,0.00,,---,0.00,VWS V14.01,2013-01-17 14:45:00,
2013-01-17 09:50:00,42.7,34.3,30.14,ENE,78,1.0,3.0,72,0.00,,---,0.00,VWS V14.01,2013-01-17 14:50:00,
2013-01-17 09:55:00,42.8,33.0,30.14,ENE,78,1.0,3.0,68,0.00,,---,0.00,VWS V14.01,2013-01-17 14:55:00,
2013-01-17 10:00:00,42.9,33.1,30.13,ENE,78,0.0,0.0,68,0.00,,---,0.00,VWS V14.01,2013-01-17 15:00:00,
2013-01-17 10:05:00,43.2,33.0,30.12,ENE,78,1.0,1.0,67,0.00,,---,0.00,VWS V14.01,2013-01-17 15:05:00,
2013-01-17 10:10:00,43.4,32.8,30.13,ENE,78,0.0,1.0,66,0.00,,---,0.00,VWS V14.01,2013-01-17 15:10:00,
2013-01-17 10:15:00,43.5,31.8,30.13,ENE,78,0.0,1.0,63,0.00,,---,0.00,VWS V14.01,2013-01-17 15:15:00,
2013-01-17 10:20:00,43.7,31.5,30.14,ENE,78,0.0,1.0,62,0.00,,---,0.00,VWS V14.01,2013-01-17 15:20:00,
2013-01-17 10:25:00,43.8,30.8,30.13,ENE,78,0.0,3.0,60,0.00,,---,0.00,VWS V14.01,2013-01-17 15:25:00,
2013-01-17 10:30:00,43.8,30.0,30.13,ENE,78,1.0,1.0,58,0.00,,---,0.00,VWS V14.01,2013-01-17 15:30:00,
2013-01-17 10:35:00,44.1,30.7,30.12,ENE,78,2.0,2.0,59,0.00,,---,0.00,VWS V14.01,2013-01-17 15:35:00,
2013-01-17 10:40:00,44.1,29.4,30.12,ENE,78,0.0,2.0,56,0.00,,---,0.00,VWS V14.01,2013-01-17 15:40:00,
2013-01-17 10:45:00,44.2,29.1,30.12,NE,40,2.0,3.0,55,0.00,,---,0.00,VWS V14.01,2013-01-17 15:45:00,
2013-01-17 10:50:00,44.3,30.0,30.12,North,10,2.0,4.0,57,0.00,,---,0.00,VWS V14.01,2013-01-17 15:50:00,
2013-01-17 10:55:00,44.3,29.6,30.12,NNE,18,0.0,4.0,56,0.00,,---,0.00,VWS V14.01,2013-01-17 15:55:00,
2013-01-17 11:00:00,44.4,30.1,30.11,NNE,18,2.0,4.0,57,0.00,,---,0.00,VWS V14.01,2013-01-17 16:00:00,
2013-01-17 11:05:00,44.4,29.3,30.11,NNE,18,2.0,4.0,55,0.00,,---,0.00,VWS V14.01,2013-01-17 16:05:00,
2013-01-17 11:10:00,44.5,29.8,30.12,NNE,18,1.0,4.0,56,0.00,,---,0.00,VWS V14.01,2013-01-17 16:10:00,
2013-01-17 11:15:00,44.4,28.8,30.11,NNE,18,3.0,4.0,54,0.00,,---,0.00,VWS V14.01,2013-01-17 16:15:00,
2013-01-17 11:20:00,44.4,29.3,30.12,NNE,26,3.0,4.0,55,0.00,,---,0.00,VWS V14.01,2013-01-17 16:20:00,
2013-01-17 11:25:00,44.3,28.7,30.11,NNE,32,3.0,5.0,54,0.00,,---,0.00,VWS V14.01,2013-01-17 16:25:00,
2013-01-17 11:30:00,44.3,28.3,30.11,NNE,16,4.0,6.0,53,0.00,,---,0.00,VWS V14.01,2013-01-17 16:30:00,
2013-01-17 11:35:00,44.1,28.5,30.10,NNE,25,4.0,7.0,54,0.00,,---,0.00,VWS V14.01,2013-01-17 16:35:00,
2013-01-17 11:40:00,43.9,27.9,30.09,NNE,26,5.0,9.0,53,0.00,,---,0.00,VWS V14.01,2013-01-17 16:40:00,
2013-01-17 11:45:00,43.8,29.1,30.09,NE,44,1.0,9.0,56,0.00,,---,0.00,VWS V14.01,2013-01-17 16:45:00,
2013-01-17 11:50:00,43.9,28.8,30.09,NNE,19,4.0,9.0,55,0.00,,---,0.00,VWS V14.01,2013-01-17 16:50:00,
2013-01-17 11:55:00,43.9,29.2,30.09,NNE,16,4.0,9.0,56,0.00,,---,0.00,VWS V14.01,2013-01-17 16:55:00,
2013-01-17 12:00:00,43.8,28.7,30.09,NE,36,3.0,10.0,55,0.00,,---,0.00,VWS V14.01,2013-01-17 17:00:00,
2013-01-17 12:05:00,43.7,28.6,30.10,North,5,3.0,6.0,55,0.00,,---,0.00,VWS V14.01,2013-01-17 17:05:00,
2013-01-17 12:10:00,43.6,29.0,30.10,North,350,2.0,6.0,56,0.00,,---,0.00,VWS V14.01,2013-01-17 17:10:00,
2013-01-17 12:15:00,43.6,29.4,30.10,North,360,3.0,6.0,57,0.00,,---,0.00,VWS V14.01,2013-01-17 17:15:00,
2013-01-17 12:20:00,43.5,29.7,30.10,NNE,12,4.0,7.0,58,0.00,,---,0.00,VWS V14.01,2013-01-17 17:20:00,
2013-01-17 12:25:00,43.4,29.6,30.10,North,5,4.0,7.0,58,0.00,,---,0.00,VWS V14.01,2013-01-17 17:25:00,
2013-01-17 12:30:00,43.4,29.2,30.10,North,10,3.0,7.0,57,0.00,,---,0.00,VWS V14.01,2013-01-17 17:30:00,
2013-01-17 12:35:00,43.3,29.1,30.10,NNE,12,5.0,7.0,57,0.00,,---,0.00,VWS V14.01,2013-01-17 17:35:00,
2013-01-17 12:40:00,43.1,29.3,30.09,North,11,4.0,7.0,58,0.00,,---,0.00,VWS V14.01,2013-01-17 17:40:00,
2013-01-17 12:45:00,42.9,29.2,30.09,NNE,24,5.0,10.0,58,0.00,,---,0.00,VWS V14.01,2013-01-17 17:45:00,
2013-01-17 12:50:00,42.7,29.4,30.08,NNW,337,3.0,10.0,59,0.00,,---,0.00,VWS V14.01,2013-01-17 17:50:00,
2013-01-17 12:55:00,42.6,29.7,30.09,NNE,32,5.0,10.0,60,0.00,,---,0.00,VWS V14.01,2013-01-17 17:55:00,
2013-01-17 13:00:00,42.5,30.0,30.09,North,360,3.0,10.0,61,0.00,,---,0.00,VWS V14.01,2013-01-17 18:00:00,
2013-01-17 13:05:00,42.5,30.0,30.10,NE,51,6.0,9.0,61,0.00,,---,0.00,VWS V14.01,2013-01-17 18:05:00,
2013-01-17 13:10:00,42.3,29.8,30.09,NE,38,6.0,9.0,61,0.00,,---,0.00,VWS V14.01,2013-01-17 18:10:00,
2013-01-17 13:15:00,42.2,30.1,30.09,NNE,26,5.0,9.0,62,0.00,,---,0.00,VWS V14.01,2013-01-17 18:15:00,
2013-01-17 13:20:00,42.0,30.3,30.09,NNE,13,4.0,9.0,63,0.00,,---,0.00,VWS V14.01,2013-01-17 18:20:00,
2013-01-17 13:25:00,41.9,30.6,30.09,NNE,18,3.0,9.0,64,0.00,,---,0.00,VWS V14.01,2013-01-17 18:25:00,
2013-01-17 13:30:00,41.7,30.4,30.09,ENE,61,4.0,10.0,64,0.00,,---,0.00,VWS V14.01,2013-01-17 18:30:00,
2013-01-17 13:35:00,41.5,30.6,30.09,NE,35,5.0,7.0,65,0.00,,---,0.00,VWS V14.01,2013-01-17 18:35:00,
2013-01-17 13:40:00,41.3,30.8,30.08,NNE,30,5.0,7.0,66,0.00,,---,0.00,VWS V14.01,2013-01-17 18:40:00,
2013-01-17 13:45:00,41.2,31.1,30.07,NNE,19,4.0,7.0,67,0.00,,---,0.00,VWS V14.01,2013-01-17 18:45:00,
2013-01-17 13:50:00,41.1,31.0,30.07,NE,34,2.0,8.0,67,0.00,,---,0.00,VWS V14.01,2013-01-17 18:50:00,
2013-01-17 13:55:00,41.1,31.0,30.06,NNE,30,4.0,8.0,67,0.00,,---,0.00,VWS V14.01,2013-01-17 18:55:00,
2013-01-17 14:00:00,41.0,30.9,30.07,North,5,4.0,8.0,67,0.00,,---,0.00,VWS V14.01,2013-01-17 19:00:00,
2013-01-17 14:05:00,41.0,32.3,30.08,NE,34,4.0,7.0,71,0.00,,---,0.00,VWS V14.01,2013-01-17 19:05:00,
2013-01-17 14:10:00,41.0,30.9,30.07,NE,55,4.0,8.0,67,0.00,,---,0.00,VWS V14.01,2013-01-17 19:10:00,
2013-01-17 14:15:00,40.9,30.8,30.07,NNE,24,5.0,8.0,67,0.00,,---,0.00,VWS V14.01,2013-01-17 19:15:00,
2013-01-17 14:20:00,40.8,31.4,30.08,NNE,19,4.0,9.0,69,0.00,,---,0.00,VWS V14.01,2013-01-17 19:20:00,
2013-01-17 14:25:00,40.6,30.9,30.08,North,5,4.0,9.0,68,0.00,,---,0.00,VWS V14.01,2013-01-17 19:25:00,
2013-01-17 14:30:00,40.5,30.8,30.08,NNE,21,5.0,10.0,68,0.00,,---,0.00,VWS V14.01,2013-01-17 19:30:00,
2013-01-17 14:35:00,40.4,31.0,30.07,NNE,14,5.0,9.0,69,0.00,,---,0.00,VWS V14.01,2013-01-17 19:35:00,
2013-01-17 14:40:00,40.3,31.3,30.08,NNE,25,5.0,9.0,70,0.00,,---,0.00,VWS V14.01,2013-01-17 19:40:00,
2013-01-17 14:45:00,40.2,31.2,30.09,NNE,22,3.0,9.0,70,0.00,,---,0.00,VWS V14.01,2013-01-17 19:45:00,
2013-01-17 14:50:00,40.3,31.3,30.08,North,360,2.0,9.0,70,0.00,,---,0.00,VWS V14.01,2013-01-17 19:50:00,
2013-01-17 14:55:00,40.2,31.6,30.09,NNE,19,2.0,9.0,71,0.00,,---,0.00,VWS V14.01,2013-01-17 19:55:00,
2013-01-17 15:00:00,40.2,31.6,30.09,NNW,348,6.0,9.0,71,0.00,,---,0.00,VWS V14.01,2013-01-17 20:00:00,
2013-01-17 15:05:00,40.1,31.5,30.08,North,360,4.0,6.0,71,0.00,,---,0.00,VWS V14.01,2013-01-17 20:05:00,
2013-01-17 15:10:00,40.0,31.4,30.09,North,349,6.0,7.0,71,0.00,,---,0.00,VWS V14.01,2013-01-17 20:10:00,
2013-01-17 15:15:00,39.8,31.5,30.09,North,355,5.0,7.0,72,0.00,,---,0.00,VWS V14.01,2013-01-17 20:15:00,
2013-01-17 15:20:00,39.7,31.8,30.09,North,355,4.0,7.0,73,0.00,,---,0.00,VWS V14.01,2013-01-17 20:20:00,
2013-01-17 15:25:00,39.6,31.7,30.10,NNE,30,3.0,7.0,73,0.00,,---,0.00,VWS V14.01,2013-01-17 20:25:00,
2013-01-17 15:30:00,39.5,31.6,30.10,NNE,28,6.0,7.0,73,0.00,,---,0.00,VWS V14.01,2013-01-17 20:30:00,
2013-01-17 15:35:00,39.5,31.6,30.10,North,5,5.0,5.0,73,0.00,,---,0.00,VWS V14.01,2013-01-17 20:35:00,
2013-01-17 15:40:00,39.3,31.4,30.10,NE,38,3.0,5.0,73,0.00,,---,0.00,VWS V14.01,2013-01-17 20:40:00,
2013-01-17 15:45:00,39.3,31.4,30.11,NNE,33,4.0,5.0,73,0.00,,---,0.00,VWS V14.01,2013-01-17 20:45:00,
2013-01-17 15:50:00,39.2,31.3,30.10,NNE,26,4.0,5.0,73,0.00,,---,0.00,VWS V14.01,2013-01-17 20:50:00,
2013-01-17 15:55:00,39.1,31.5,30.11,NNE,15,1.0,5.0,74,0.00,,---,0.00,VWS V14.01,2013-01-17 20:55:00,
2013-01-17 16:00:00,39.1,31.5,30.12,North,10,3.0,5.0,74,0.00,,---,0.00,VWS V14.01,2013-01-17 21:00:00,
2013-01-17 16:05:00,39.0,31.8,30.11,North,350,4.0,5.0,75,0.00,,---,0.00,VWS V14.01,2013-01-17 21:05:00,
2013-01-17 16:10:00,38.9,31.7,30.11,NE,38,1.0,5.0,75,0.00,,---,0.00,VWS V14.01,2013-01-17 21:10:00,
2013-01-17 16:15:00,38.8,31.6,30.10,NE,38,3.0,5.0,75,0.00,,---,0.00,VWS V14.01,2013-01-17 21:15:00,
2013-01-17 16:20:00,38.8,31.6,30.10,NE,51,3.0,5.0,75,0.00,,---,0.00,VWS V14.01,2013-01-17 21:20:00,
2013-01-17 16:25:00,38.6,31.7,30.10,NNE,20,6.0,9.0,76,0.00,,---,0.00,VWS V14.01,2013-01-17 21:25:00,
2013-01-17 16:30:00,38.6,31.7,30.11,ENE,64,0.0,9.0,76,0.00,,---,0.00,VWS V14.01,2013-01-17 21:30:00,
2013-01-17 16:34:00,38.5,31.6,30.10,ENE,58,4.0,4.0,76,0.00,,---,0.00,VWS V14.01,2013-01-17 21:34:00,
2013-01-17 16:39:00,38.4,31.5,30.11,NE,38,2.0,4.0,76,0.00,,---,0.00,VWS V14.01,2013-01-17 21:39:00,
2013-01-17 16:44:00,38.3,31.7,30.10,NNE,15,5.0,6.0,77,0.00,,---,0.00,VWS V14.01,2013-01-17 21:44:00,
2013-01-17 16:49:00,38.2,31.6,30.11,NNE,17,2.0,6.0,77,0.00,,---,0.00,VWS V14.01,2013-01-17 21:49:00,
2013-01-17 16:54:00,38.1,31.5,30.12,North,350,3.0,6.0,77,0.00,,---,0.00,VWS V14.01,2013-01-17 21:54:00,
2013-01-17 16:59:00,38.0,31.4,30.12,NNW,327,4.0,6.0,77,0.00,,---,0.00,VWS V14.01,2013-01-17 21:59:00,
2013-01-17 17:04:00,37.8,31.6,30.11,North,355,5.0,7.0,78,0.00,,---,0.00,VWS V14.01,2013-01-17 22:04:00,
2013-01-17 17:09:00,37.7,31.5,30.11,North,351,3.0,7.0,78,0.00,,---,0.00,VWS V14.01,2013-01-17 22:09:00,
2013-01-17 17:14:00,37.5,31.6,30.13,North,360,6.0,10.0,79,0.00,,---,0.00,VWS V14.01,2013-01-17 22:14:00,
2013-01-17 17:19:00,37.4,31.5,30.12,NNE,25,4.0,10.0,79,0.00,,---,0.00,VWS V14.01,2013-01-17 22:19:00,
2013-01-17 17:24:00,37.3,31.4,30.11,NE,42,2.0,10.0,79,0.00,,---,0.00,VWS V14.01,2013-01-17 22:24:00,
2013-01-17 17:29:00,37.2,31.3,30.12,NE,42,4.0,10.0,79,0.00,,---,0.00,VWS V14.01,2013-01-17 22:29:00,
2013-01-17 17:34:00,37.1,31.5,30.11,NE,37,2.0,4.0,80,0.00,,---,0.00,VWS V14.01,2013-01-17 22:34:00,
2013-01-17 17:39:00,37.1,31.5,30.13,NNW,334,4.0,5.0,80,0.00,,---,0.00,VWS V14.01,2013-01-17 22:39:00,
2013-01-17 17:44:00,37.0,31.4,30.13,NW,323,2.0,7.0,80,0.00,,---,0.00,VWS V14.01,2013-01-17 22:44:00,
2013-01-17 17:49:00,37.0,31.7,30.14,NNW,344,7.0,7.0,81,0.00,,---,0.00,VWS V14.01,2013-01-17 22:49:00,
2013-01-17 17:54:00,37.0,31.4,30.14,NE,46,3.0,7.0,80,0.00,,---,0.00,VWS V14.01,2013-01-17 22:54:00,
2013-01-17 17:59:00,37.0,31.1,30.12,NE,52,5.0,7.0,79,0.00,,---,0.00,VWS V14.01,2013-01-17 22:59:00,
2013-01-17 18:04:00,36.9,31.0,30.12,East,82,0.0,4.0,79,0.00,,---,0.00,VWS V14.01,2013-01-17 23:04:00,
2013-01-17 18:09:00,36.8,31.2,30.12,East,79,0.0,4.0,80,0.00,,---,0.00,VWS V14.01,2013-01-17 23:09:00,
2013-01-17 18:14:00,36.8,31.2,30.13,East,79,1.0,4.0,80,0.00,,---,0.00,VWS V14.01,2013-01-17 23:14:00,
2013-01-17 18:19:00,36.7,31.1,30.12,NNE,22,2.0,4.0,80,0.00,,---,0.00,VWS V14.01,2013-01-17 23:19:00,
2013-01-17 18:24:00,36.7,31.1,30.13,NNE,19,2.0,5.0,80,0.00,,---,0.00,VWS V14.01,2013-01-17 23:24:00,
2013-01-17 18:29:00,36.7,31.1,30.15,NNW,342,4.0,5.0,80,0.00,,---,0.00,VWS V14.01,2013-01-17 23:29:00,
2013-01-17 18:34:00,36.7,31.1,30.14,NNW,342,3.0,3.0,80,0.00,,---,0.00,VWS V14.01,2013-01-17 23:34:00,
2013-01-17 18:39:00,36.6,31.0,30.14,NE,54,0.0,3.0,80,0.00,,---,0.00,VWS V14.01,2013-01-17 23:39:00,
2013-01-17 18:44:00,36.6,31.0,30.12,NE,53,1.0,3.0,80,0.00,,---,0.00,VWS V14.01,2013-01-17 23:44:00,
2013-01-17 18:49:00,36.5,30.9,30.12,NE,53,1.0,3.0,80,0.00,,---,0.00,VWS V14.01,2013-01-17 23:49:00,
2013-01-17 18:54:00,36.5,30.9,30.12,NE,54,2.0,3.0,80,0.00,,---,0.00,VWS V14.01,2013-01-17 23:54:00,
2013-01-17 18:59:00,36.5,30.9,30.13,North,350,3.0,4.0,80,0.00,,---,0.00,VWS V14.01,2013-01-17 23:59:00,
2013-01-17 19:04:00,36.5,31.2,30.13,North,360,6.0,8.0,81,0.00,,---,0.00,VWS V14.01,2013-01-18 00:04:00,
2013-01-17 19:09:00,36.6,31.0,30.13,NNW,343,6.0,10.0,80,0.00,,---,0.00,VWS V14.01,2013-01-18 00:09:00,
2013-01-17 19:14:00,36.5,30.9,30.13,NW,315,8.0,10.0,80,0.00,,---,0.00,VWS V14.01,2013-01-18 00:14:00,
2013-01-17 19:19:00,36.5,30.9,30.12,North,355,10.0,11.0,80,0.00,,---,0.00,VWS V14.01,2013-01-18 00:19:00,
2013-01-17 19:24:00,36.5,30.9,30.11,North,360,5.0,11.0,80,0.00,,---,0.00,VWS V14.01,2013-01-18 00:24:00,
2013-01-17 19:29:00,36.4,30.8,30.12,NNE,30,3.0,11.0,80,0.00,,---,0.00,VWS V14.01,2013-01-18 00:29:00,
2013-01-17 19:34:00,36.4,30.5,30.12,NNW,345,4.0,6.0,79,0.00,,---,0.00,VWS V14.01,2013-01-18 00:34:00,
2013-01-17 19:39:00,36.4,30.5,30.12,NNE,16,0.0,6.0,79,0.00,,---,0.00,VWS V14.01,2013-01-18 00:39:00,
2013-01-17 19:44:00,36.4,30.5,30.12,NNE,15,1.0,6.0,79,0.00,,---,0.00,VWS V14.01,2013-01-18 00:44:00,
2013-01-17 19:49:00,36.3,30.4,30.12,NNE,15,2.0,6.0,79,0.00,,---,0.00,VWS V14.01,2013-01-18 00:49:00,
2013-01-17 19:54:00,36.3,30.4,30.13,NNE,15,1.0,6.0,79,0.00,,---,0.00,VWS V14.01,2013-01-18 00:54:00,
2013-01-17 19:59:00,36.2,30.3,30.12,NNE,15,1.0,6.0,79,0.00,,---,0.00,VWS V14.01,2013-01-18 00:59:00,
2013-01-17 20:04:00,36.2,30.3,30.12,NNE,15,0.0,3.0,79,0.00,,---,0.00,VWS V14.01,2013-01-18 01:04:00,
2013-01-17 20:09:00,36.2,30.3,30.13,NNE,15,0.0,3.0,79,0.00,,---,0.00,VWS V14.01,2013-01-18 01:09:00,
2013-01-17 20:14:00,36.1,30.5,30.13,NNE,15,0.0,3.0,80,0.00,,---,0.00,VWS V14.01,2013-01-18 01:14:00,
2013-01-17 20:19:00,36.0,30.4,30.12,NNE,15,0.0,3.0,80,0.00,,---,0.00,VWS V14.01,2013-01-18 01:19:00,
2013-01-17 20:24:00,35.9,30.3,30.12,NNE,15,0.0,3.0,80,0.00,,---,0.00,VWS V14.01,2013-01-18 01:24:00,
2013-01-17 20:29:00,35.9,30.3,30.11,NNE,15,0.0,3.0,80,0.00,,---,0.00,VWS V14.01,2013-01-18 01:29:00,
2013-01-17 20:34:00,35.8,30.5,30.11,NNE,15,0.0,1.0,81,0.00,,---,0.00,VWS V14.01,2013-01-18 01:34:00,
2013-01-17 20:39:00,35.7,30.5,30.11,NNE,15,0.0,1.0,81,0.00,,---,0.00,VWS V14.01,2013-01-18 01:39:00,
2013-01-17 20:44:00,35.6,30.4,30.12,NNE,15,0.0,2.0,81,0.00,,---,0.00,VWS V14.01,2013-01-18 01:44:00,
2013-01-17 20:49:00,35.6,30.7,30.13,NNE,15,1.0,2.0,82,0.00,,---,0.00,VWS V14.01,2013-01-18 01:49:00,
2013-01-17 20:54:00,35.5,30.6,30.14,NNE,15,0.0,2.0,82,0.00,,---,0.00,VWS V14.01,2013-01-18 01:54:00,
2013-01-17 20:59:00,35.5,30.6,30.13,NNE,15,0.0,2.0,82,0.00,,---,0.00,VWS V14.01,2013-01-18 01:59:00,
2013-01-17 21:04:00,35.4,30.5,30.12,NNE,15,0.0,0.0,82,0.00,,---,0.00,VWS V14.01,2013-01-18 02:04:00,
2013-01-17 21:09:00,35.4,30.5,30.12,NNE,15,0.0,0.0,82,0.00,,---,0.00,VWS V14.01,2013-01-18 02:09:00,
2013-01-17 21:14:00,35.3,30.7,30.13,NNE,15,0.0,0.0,83,0.00,,---,0.00,VWS V14.01,2013-01-18 02:14:00,
2013-01-17 21:19:00,35.3,30.7,30.12,NNE,15,0.0,0.0,83,0.00,,---,0.00,VWS V14.01,2013-01-18 02:19:00,
2013-01-17 21:24:00,35.2,30.6,30.12,NNE,15,0.0,0.0,83,0.00,,---,0.00,VWS V14.01,2013-01-18 02:24:00,
2013-01-17 21:29:00,35.2,30.9,30.12,NNE,15,0.0,0.0,84,0.00,,---,0.00,VWS V14.01,2013-01-18 02:29:00,
2013-01-17 21:34:00,35.1,30.8,30.10,NNE,15,0.0,1.0,84,0.00,,---,0.00,VWS V14.01,2013-01-18 02:34:00,
2013-01-17 21:39:00,35.1,31.0,30.10,NNE,15,0.0,2.0,85,0.00,,---,0.00,VWS V14.01,2013-01-18 02:39:00,
2013-01-17 21:44:00,35.0,31.0,30.09,NNE,16,0.0,2.0,85,0.00,,---,0.00,VWS V14.01,2013-01-18 02:44:00,
2013-01-17 21:49:00,35.0,31.0,30.11,NNE,16,1.0,2.0,85,0.00,,---,0.00,VWS V14.01,2013-01-18 02:49:00,
2013-01-17 21:54:00,34.8,31.0,30.12,NNE,15,0.0,2.0,86,0.00,,---,0.00,VWS V14.01,2013-01-18 02:54:00,
2013-01-17 21:59:00,34.8,31.0,30.11,NNE,15,0.0,2.0,86,0.00,,---,0.00,VWS V14.01,2013-01-18 02:59:00,
2013-01-17 22:04:00,34.7,31.0,30.13,NNE,16,0.0,0.0,86,0.00,,---,0.00,VWS V14.01,2013-01-18 03:04:00,
2013-01-17 22:09:00,34.7,31.0,30.13,NNE,16,0.0,2.0,86,0.00,,---,0.00,VWS V14.01,2013-01-18 03:09:00,
2013-01-17 22:14:00,34.8,31.0,30.13,NNE,16,0.0,2.0,86,0.00,,---,0.00,VWS V14.01,2013-01-18 03:14:00,
2013-01-17 22:19:00,34.8,31.0,30.14,NNE,16,0.0,2.0,86,0.00,,---,0.00,VWS V14.01,2013-01-18 03:19:00,
2013-01-17 22:24:00,34.7,31.0,30.13,NNE,16,0.0,2.0,86,0.00,,---,0.00,VWS V14.01,2013-01-18 03:24:00,
2013-01-17 22:29:00,34.6,30.9,30.13,NNE,16,0.0,2.0,86,0.00,,---,0.00,VWS V14.01,2013-01-18 03:29:00,
2013-01-17 22:34:00,34.5,30.8,30.13,NNE,15,0.0,0.0,86,0.00,,---,0.00,VWS V14.01,2013-01-18 03:34:00,
2013-01-17 22:39:00,34.4,30.9,30.13,NNE,15,0.0,0.0,87,0.00,,---,0.00,VWS V14.01,2013-01-18 03:39:00,
2013-01-17 22:44:00,34.4,30.9,30.12,NNE,16,0.0,0.0,87,0.00,,---,0.00,VWS V14.01,2013-01-18 03:44:00,
2013-01-17 22:49:00,34.4,30.9,30.12,NNE,15,0.0,0.0,87,0.00,,---,0.00,VWS V14.01,2013-01-18 03:49:00,
2013-01-17 22:54:00,34.4,30.9,30.12,NNE,16,0.0,0.0,87,0.00,,---,0.00,VWS V14.01,2013-01-18 03:54:00,
2013-01-17 22:59:00,34.4,31.2,30.12,NNE,16,0.0,0.0,88,0.00,,---,0.00,VWS V14.01,2013-01-18 03:59:00,
2013-01-17 23:04:00,34.4,31.2,30.12,NNE,16,0.0,1.0,88,0.00,,---,0.00,VWS V14.01,2013-01-18 04:04:00,
2013-01-17 23:09:00,34.4,31.2,30.11,NNE,16,0.0,1.0,88,0.00,,---,0.00,VWS V14.01,2013-01-18 04:09:00,
2013-01-17 23:14:00,34.4,31.5,30.10,NNE,15,2.0,3.0,89,0.00,,---,0.00,VWS V14.01,2013-01-18 04:14:00,
2013-01-17 23:19:00,34.2,31.0,30.08,NNE,16,2.0,3.0,88,0.00,,---,0.00,VWS V14.01,2013-01-18 04:19:00,
2013-01-17 23:24:00,33.9,31.0,30.08,NNE,16,0.0,3.0,89,0.00,,---,0.00,VWS V14.01,2013-01-18 04:24:00,
2013-01-17 23:29:00,33.9,31.0,30.09,NNE,16,1.0,3.0,89,0.00,,---,0.00,VWS V14.01,2013-01-18 04:29:00,
2013-01-17 23:34:00,33.8,30.9,30.11,NNE,16,1.0,2.0,89,0.00,,---,0.00,VWS V14.01,2013-01-18 04:34:00,
2013-01-17 23:38:00,33.7,30.8,30.11,NNE,16,1.0,3.0,89,0.00,,---,0.00,VWS V14.01,2013-01-18 04:38:00,
2013-01-17 23:43:00,33.7,30.8,30.12,North,360,0.0,3.0,89,0.00,,---,0.00,VWS V14.01,2013-01-18 04:43:00,
2013-01-17 23:48:00,33.6,31.0,30.13,North,5,2.0,3.0,90,0.00,,---,0.00,VWS V14.01,2013-01-18 04:48:00,
2013-01-17 23:53:00,33.7,30.8,30.14,WSW,240,1.0,4.0,89,0.00,,---,0.00,VWS V14.01,2013-01-18 04:53:00,
2013-01-17 23:58:00,33.7,30.8,30.14,WSW,240,2.0,4.0,89,0.00,,---,0.00,VWS V14.01,2013-01-18 04:58:00,